createdAt,value
2022-08-12T00:01:14.669Z,4.57
2022-08-12T00:04:01.228Z,5.10
2022-08-12T00:06:50.907Z,4.90
2022-08-12T00:09:37.766Z,4.07
2022-08-12T00:12:24.959Z,4.83
2022-08-12T00:15:11.883Z,4.27
2022-08-12T00:17:59.212Z,4.57
2022-08-12T00:20:45.919Z,4.07
2022-08-12T00:23:33.977Z,6.83
2022-08-12T00:26:24.443Z,4.63
2022-08-12T00:29:12.499Z,6.07
2022-08-12T00:32:00.113Z,6.70
2022-08-12T00:34:49.488Z,4.70
2022-08-12T00:37:38.648Z,7.40
2022-08-12T00:40:29.125Z,4.30
2022-08-12T00:42:59.132Z,4.47
2022-08-12T00:45:49.074Z,4.27
2022-08-12T00:48:18.992Z,4.40
2022-08-12T00:50:51.272Z,4.43
2022-08-12T00:53:21.967Z,5.07
2022-08-12T00:55:56.964Z,6.00
2022-08-12T00:58:29.075Z,4.63
2022-08-12T01:01:01.997Z,5.07
2022-08-12T01:03:54.868Z,4.63
2022-08-12T01:06:42.864Z,4.53
2022-08-12T01:09:29.520Z,4.10
2022-08-12T01:12:01.212Z,4.50
2022-08-12T01:14:30.472Z,4.50
2022-08-12T01:17:00.747Z,5.50
2022-08-12T01:19:30.215Z,4.47
2022-08-12T01:22:19.982Z,5.23
2022-08-12T01:24:57.272Z,5.03
2022-08-12T01:27:27.484Z,4.57
2022-08-12T01:29:58.792Z,4.83
2022-08-12T01:32:29.459Z,4.67
2022-08-12T01:35:04.485Z,5.00
2022-08-12T01:37:37.650Z,4.97
2022-08-12T01:40:36.876Z,5.10
2022-08-12T01:43:06.693Z,5.80
2022-08-12T01:45:43.557Z,8.50
2022-08-12T01:48:26.504Z,4.90
2022-08-12T01:51:06.372Z,6.07
2022-08-12T01:53:50.139Z,9.10
2022-08-12T01:56:25.634Z,9.23
2022-08-12T01:59:16.062Z,6.77
2022-08-12T02:01:47.913Z,6.77
2022-08-12T02:04:42.514Z,5.23
2022-08-12T02:07:51.886Z,5.70
2022-08-12T02:10:49.913Z,5.13
2022-08-12T02:13:48.930Z,5.53
2022-08-12T02:16:38.011Z,5.20
2022-08-12T02:19:22.330Z,4.97
2022-08-12T02:22:05.126Z,5.40
2022-08-12T02:24:38.391Z,5.43
2022-08-12T02:27:10.106Z,6.20
2022-08-12T02:29:41.516Z,5.50
2022-08-12T02:32:10.872Z,6.07
2022-08-12T02:34:40.339Z,5.07
2022-08-12T02:37:10.484Z,8.37
2022-08-12T02:39:45.437Z,7.53
2022-08-12T02:42:17.387Z,8.27
2022-08-12T02:44:51.955Z,5.90
2022-08-12T02:48:00.225Z,6.60
2022-08-12T02:50:17.777Z,6.17
2022-08-12T02:52:48.108Z,5.63
2022-08-12T02:55:28.844Z,9.73
2022-08-12T02:58:12.534Z,7.87
2022-08-12T03:00:45.694Z,6.43
2022-08-12T03:03:15.767Z,5.83
2022-08-12T03:05:52.691Z,5.13
2022-08-12T03:08:32.628Z,5.13
2022-08-12T03:11:06.235Z,5.47
2022-08-12T03:13:48.112Z,5.63
2022-08-12T03:16:20.566Z,5.17
2022-08-12T03:18:51.378Z,5.13
2022-08-12T03:21:55.313Z,5.37
2022-08-12T03:24:18.464Z,5.70
2022-08-12T03:26:52.727Z,5.00
2022-08-12T03:29:30.240Z,5.17
2022-08-12T03:32:01.229Z,5.77
2022-08-12T03:34:35.283Z,4.80
2022-08-12T03:37:05.638Z,5.17
2022-08-12T03:39:43.705Z,5.33
2022-08-12T03:42:33.049Z,5.20
2022-08-12T03:45:35.593Z,5.73
2022-08-12T03:48:38.762Z,6.83
2022-08-12T03:51:26.588Z,5.60
2022-08-12T03:54:13.391Z,5.90
2022-08-12T03:56:59.821Z,6.53
2022-08-12T03:59:46.247Z,6.03
2022-08-12T04:02:16.333Z,6.27
2022-08-12T04:04:49.467Z,7.10
2022-08-12T04:07:18.639Z,5.90
2022-08-12T04:09:48.490Z,6.87
2022-08-12T04:12:34.842Z,6.80
2022-08-12T04:15:06.570Z,8.17
2022-08-12T04:17:38.305Z,5.60
2022-08-12T04:20:28.942Z,5.60
2022-08-12T04:22:58.507Z,5.57
2022-08-12T04:25:29.289Z,5.90
2022-08-12T04:27:58.458Z,5.20
2022-08-12T04:30:43.274Z,4.90
2022-08-12T04:33:12.793Z,5.40
2022-08-12T04:35:43.242Z,5.80
2022-08-12T04:38:13.588Z,5.87
2022-08-12T04:40:45.852Z,6.27
2022-08-12T04:44:01.503Z,6.07
2022-08-12T04:46:04.334Z,6.10
2022-08-12T04:48:33.484Z,5.83
2022-08-12T04:51:04.175Z,6.57
2022-08-12T04:53:33.688Z,6.27
2022-08-12T04:56:02.707Z,6.13
2022-08-12T04:58:32.562Z,5.57
2022-08-12T05:01:02.067Z,8.17
2022-08-12T05:03:46.509Z,5.77
2022-08-12T05:06:26.892Z,6.57
2022-08-12T05:08:56.642Z,5.83
2022-08-12T05:11:26.736Z,6.60
2022-08-12T05:14:00.141Z,5.93
2022-08-12T05:16:34.114Z,6.13
2022-08-12T05:19:03.850Z,6.10
2022-08-12T05:21:34.483Z,6.57
2022-08-12T05:24:03.892Z,6.00
2022-08-12T05:26:32.851Z,5.90
2022-08-12T05:29:01.718Z,5.93
2022-08-12T05:31:47.217Z,5.60
2022-08-12T05:34:17.343Z,5.40
2022-08-12T05:36:47.715Z,5.57
2022-08-12T05:39:16.828Z,5.50
2022-08-12T05:41:46.035Z,5.23
2022-08-12T05:44:16.340Z,5.70
2022-08-12T05:46:45.602Z,5.60
2022-08-12T05:49:14.588Z,6.57
2022-08-12T05:51:43.777Z,6.20
2022-08-12T05:54:14.307Z,5.70
2022-08-12T05:56:43.617Z,5.17
2022-08-12T05:59:13.949Z,5.23
2022-08-12T06:02:10.504Z,4.87
2022-08-12T06:04:33.256Z,4.70
2022-08-12T06:07:37.348Z,4.80
2022-08-12T06:09:53.047Z,4.50
2022-08-12T06:12:23.317Z,5.17
2022-08-12T06:14:55.636Z,4.67
2022-08-12T06:17:24.681Z,4.20
2022-08-12T06:20:27.840Z,4.47
2022-08-12T06:22:44.131Z,3.93
2022-08-12T06:25:22.057Z,4.23
2022-08-12T06:28:07.408Z,4.20
2022-08-12T06:30:39.361Z,3.87
2022-08-12T06:33:55.903Z,4.00
2022-08-12T06:35:59.615Z,4.07
2022-08-12T06:38:31.444Z,5.23
2022-08-12T06:41:20.260Z,4.87
2022-08-12T06:44:07.015Z,5.40
2022-08-12T06:46:39.448Z,4.40
2022-08-12T06:49:13.203Z,5.10
2022-08-12T06:51:42.322Z,3.87
2022-08-12T06:54:31.014Z,4.00
2022-08-12T06:58:05.701Z,4.30
2022-08-12T06:59:52.196Z,3.70
2022-08-12T07:02:22.550Z,3.70
2022-08-12T07:04:52.549Z,4.23
2022-08-12T07:07:21.822Z,3.60
2022-08-12T07:10:06.762Z,4.73
2022-08-12T07:12:39.533Z,3.80
2022-08-12T07:15:10.021Z,3.53
2022-08-12T07:17:41.790Z,6.57
2022-08-12T07:20:29.709Z,3.40
2022-08-12T07:23:02.766Z,6.60
2022-08-12T07:25:37.392Z,5.07
2022-08-12T07:28:16.867Z,4.73
2022-08-12T07:30:49.095Z,4.17
2022-08-12T07:33:20.162Z,3.07
2022-08-12T07:35:50.073Z,4.60
2022-08-12T07:38:29.557Z,5.43
2022-08-12T07:41:04.045Z,3.80
2022-08-12T07:43:39.335Z,4.37
2022-08-12T07:46:10.789Z,2.90
2022-08-12T07:48:43.135Z,3.57
2022-08-12T07:51:25.144Z,2.80
2022-08-12T07:54:01.073Z,3.40
2022-08-12T07:56:33.104Z,2.67
2022-08-12T07:59:03.840Z,2.50
2022-08-12T08:01:34.689Z,3.03
2022-08-12T08:04:21.616Z,4.63
2022-08-12T08:06:51.394Z,2.20
2022-08-12T08:09:24.224Z,1.90
2022-08-12T08:12:18.507Z,3.53
2022-08-12T08:14:51.932Z,1.97
2022-08-12T08:17:20.968Z,2.40
2022-08-12T08:20:03.733Z,1.83
2022-08-12T08:22:41.837Z,4.37
2022-08-12T08:25:36.335Z,2.57
2022-08-12T08:28:09.069Z,1.70
2022-08-12T08:30:42.378Z,3.73
2022-08-12T08:34:04.344Z,5.17
2022-08-12T08:36:02.334Z,2.27
2022-08-12T08:38:35.120Z,1.67
2022-08-12T08:42:19.114Z,2.77
2022-08-12T08:44:12.568Z,3.30
2022-08-12T08:46:44.583Z,8.50
2022-08-12T08:49:15.663Z,3.47
2022-08-12T08:51:46.111Z,6.00
2022-08-12T08:54:15.231Z,1.63
2022-08-12T08:56:45.337Z,1.73
2022-08-12T08:59:15.421Z,2.37
2022-08-12T09:01:46.520Z,1.50
2022-08-12T09:05:09.005Z,1.40
2022-08-12T09:10:02.638Z,2.37
2022-08-12T09:12:54.137Z,3.00
2022-08-12T09:15:35.366Z,3.03
2022-08-12T09:18:09.461Z,1.70
2022-08-12T09:20:40.556Z,3.33
2022-08-12T09:23:59.454Z,1.87
2022-08-12T09:28:53.016Z,2.37
2022-08-12T09:32:06.442Z,1.67
2022-08-12T09:34:26.600Z,2.50
2022-08-12T09:37:19.628Z,1.53
2022-08-12T09:40:05.534Z,1.20
2022-08-12T09:43:16.952Z,1.23
2022-08-12T09:46:14.106Z,1.20
2022-08-12T09:48:40.148Z,1.93
2022-08-12T09:51:21.822Z,3.73
2022-08-12T09:54:08.574Z,1.90
2022-08-12T09:56:59.171Z,0.87
2022-08-12T10:00:12.661Z,2.60
2022-08-12T10:02:43.341Z,2.90
2022-08-12T10:05:13.279Z,1.63
2022-08-12T10:07:44.396Z,1.00
2022-08-12T10:10:24.507Z,1.13
2022-08-12T10:13:36.013Z,2.60
2022-08-12T10:16:07.220Z,1.00
2022-08-12T10:18:52.381Z,3.87
2022-08-12T10:21:23.635Z,2.23
2022-08-12T10:23:57.098Z,1.20
2022-08-12T10:26:44.782Z,1.67
2022-08-12T10:30:37.940Z,1.10
2022-08-12T10:32:44.721Z,1.03
2022-08-12T10:35:15.217Z,2.10
2022-08-12T10:38:33.359Z,1.27
2022-08-12T10:40:57.487Z,1.13
2022-08-12T10:43:55.611Z,1.67
2022-08-12T10:46:31.129Z,0.97
2022-08-12T10:49:06.784Z,1.20
2022-08-12T10:52:31.157Z,1.33
2022-08-12T10:54:42.428Z,0.90
2022-08-12T10:57:18.505Z,1.23
2022-08-12T11:00:30.803Z,2.30
2022-08-12T11:04:23.646Z,1.13
2022-08-12T11:07:06.104Z,1.10
2022-08-12T11:08:42.913Z,1.07
2022-08-12T11:11:16.863Z,2.20
2022-08-12T11:13:48.762Z,0.90
2022-08-12T11:16:22.401Z,1.60
2022-08-12T11:18:54.989Z,1.17
2022-08-12T11:21:56.248Z,1.10
2022-08-12T11:24:30.942Z,1.03
2022-08-12T11:27:07.686Z,4.23
2022-08-12T11:30:05.478Z,1.07
2022-08-12T11:32:30.018Z,0.90
2022-08-12T11:35:09.129Z,1.47
2022-08-12T11:37:58.785Z,2.10
2022-08-12T11:40:29.767Z,1.43
2022-08-12T11:43:18.549Z,1.30
2022-08-12T11:45:53.119Z,1.20
2022-08-12T11:48:26.768Z,1.20
2022-08-12T11:50:56.819Z,2.07
2022-08-12T11:53:57.811Z,1.37
2022-08-12T11:56:15.167Z,2.20
2022-08-12T12:02:02.847Z,1.33
2022-08-12T12:04:29.091Z,1.20
2022-08-12T12:07:07.301Z,1.73
2022-08-12T12:09:52.740Z,3.00
2022-08-12T12:12:25.094Z,1.20
2022-08-12T12:14:55.846Z,1.43
2022-08-12T12:17:38.097Z,1.10
2022-08-12T12:20:10.103Z,2.13
2022-08-12T12:22:45.005Z,1.63
2022-08-12T12:25:14.537Z,1.10
2022-08-12T12:28:04.128Z,1.67
2022-08-12T12:30:35.191Z,1.00
2022-08-12T12:33:07.473Z,3.30
2022-08-12T12:36:19.857Z,1.03
2022-08-12T12:38:28.448Z,1.73
2022-08-12T12:40:57.627Z,1.20
2022-08-12T12:43:29.148Z,1.97
2022-08-12T12:46:12.757Z,1.47
2022-08-12T12:48:44.687Z,1.50
2022-08-12T12:51:48.441Z,3.00
2022-08-12T12:54:09.689Z,1.10
2022-08-12T12:56:42.341Z,0.90
2022-08-12T12:59:55.297Z,1.10
2022-08-12T13:02:09.493Z,1.40
2022-08-12T13:04:40.821Z,1.33
2022-08-12T13:07:10.018Z,1.20
2022-08-12T13:09:39.356Z,1.33
2022-08-12T13:12:15.591Z,1.20
2022-08-12T13:14:44.779Z,1.20
2022-08-12T13:17:17.697Z,2.07
2022-08-12T13:19:50.445Z,1.20
2022-08-12T13:22:21.450Z,1.20
2022-08-12T13:24:56.513Z,2.27
2022-08-12T13:27:34.676Z,1.37
2022-08-12T13:30:10.927Z,1.73
2022-08-12T13:32:56.926Z,1.20
2022-08-12T13:36:03.301Z,1.33
2022-08-12T13:38:34.511Z,1.20
2022-08-12T13:41:11.204Z,1.67
2022-08-12T13:43:41.998Z,1.00
2022-08-12T13:46:14.395Z,2.90
2022-08-12T13:48:45.291Z,1.90
2022-08-12T13:51:24.174Z,1.00
2022-08-12T13:53:58.826Z,1.33
2022-08-12T13:56:35.191Z,0.63
2022-08-12T13:59:07.882Z,0.67
2022-08-12T14:01:40.508Z,0.73
2022-08-12T14:04:11.368Z,1.27
2022-08-12T14:06:43.430Z,2.40
2022-08-12T14:09:17.527Z,1.50
2022-08-12T14:11:58.468Z,1.77
2022-08-12T14:14:31.704Z,0.70
2022-08-12T14:17:10.414Z,0.80
2022-08-12T14:20:00.549Z,0.70
2022-08-12T14:22:31.998Z,1.53
2022-08-12T14:25:02.340Z,1.70
2022-08-12T14:28:04.621Z,0.80
2022-08-12T14:30:28.729Z,0.87
2022-08-12T14:33:02.894Z,1.63
2022-08-12T14:35:41.117Z,1.60
2022-08-12T14:38:25.902Z,1.00
2022-08-12T14:40:57.526Z,1.80
2022-08-12T14:43:31.678Z,2.10
2022-08-12T14:46:15.594Z,2.50
2022-08-12T14:48:46.482Z,2.57
2022-08-12T14:52:44.276Z,3.63
2022-08-12T14:57:19.938Z,1.10
2022-08-12T15:00:03.889Z,1.00
2022-08-12T15:02:33.003Z,2.40
2022-08-12T15:05:03.600Z,1.83
2022-08-12T15:07:49.417Z,0.90
2022-08-12T15:10:31.305Z,0.80
2022-08-12T15:13:07.409Z,1.33
2022-08-12T15:15:44.234Z,3.47
2022-08-12T15:18:21.146Z,1.00
2022-08-12T15:20:52.173Z,1.67
2022-08-12T15:23:22.845Z,0.70
2022-08-12T15:25:59.738Z,1.90
2022-08-12T15:28:34.454Z,1.23
2022-08-12T15:31:09.554Z,1.90
2022-08-12T15:33:57.247Z,1.33
2022-08-12T15:36:54.422Z,1.10
2022-08-12T15:39:17.014Z,1.00
2022-08-12T15:41:49.579Z,1.13
2022-08-12T15:44:42.420Z,2.43
2022-08-12T15:47:10.599Z,1.00
2022-08-12T15:49:54.515Z,2.20
2022-08-12T15:52:30.839Z,3.77
2022-08-12T15:55:06.573Z,6.70
2022-08-12T15:57:53.351Z,1.17
2022-08-12T16:00:32.783Z,1.23
2022-08-12T16:03:05.833Z,2.10
2022-08-12T16:06:11.810Z,2.20
2022-08-12T16:08:42.410Z,1.23
2022-08-12T16:11:15.576Z,1.37
2022-08-12T16:13:49.865Z,2.03
2022-08-12T16:16:24.525Z,1.77
2022-08-12T16:18:57.355Z,2.67
2022-08-12T16:21:51.328Z,1.30
2022-08-12T16:24:19.593Z,1.00
2022-08-12T16:26:51.489Z,1.20
2022-08-12T16:29:52.310Z,1.87
2022-08-12T16:32:24.155Z,1.30
2022-08-12T16:35:01.239Z,1.20
2022-08-12T16:38:24.832Z,2.93
2022-08-12T16:40:22.389Z,1.70
2022-08-12T16:42:54.150Z,2.20
2022-08-12T16:46:08.064Z,2.77
2022-08-12T16:48:34.082Z,1.20
2022-08-12T16:51:09.319Z,1.63
2022-08-12T16:53:43.918Z,1.20
2022-08-12T16:56:17.275Z,1.33
2022-08-12T16:58:48.244Z,5.00
2022-08-12T17:01:19.656Z,1.53
2022-08-12T17:04:05.251Z,1.40
2022-08-12T17:06:43.086Z,1.43
2022-08-12T17:09:17.276Z,1.20
2022-08-12T17:11:49.268Z,1.30
2022-08-12T17:14:23.500Z,1.20
2022-08-12T17:16:56.060Z,1.20
2022-08-12T17:20:35.094Z,1.70
2022-08-12T17:22:16.825Z,1.10
2022-08-12T17:24:55.405Z,0.90
2022-08-12T17:27:26.591Z,1.63
2022-08-12T17:30:04.433Z,1.10
2022-08-12T17:32:37.239Z,0.97
2022-08-12T17:35:30.034Z,1.20
2022-08-12T17:38:11.524Z,1.13
2022-08-12T17:40:43.506Z,1.50
2022-08-12T17:43:52.112Z,1.20
2022-08-12T17:46:12.798Z,1.13
2022-08-12T17:48:55.263Z,5.23
2022-08-12T17:51:31.540Z,1.20
2022-08-12T17:54:11.499Z,1.20
2022-08-12T17:56:43.559Z,1.10
2022-08-12T17:59:13.399Z,2.93
2022-08-12T18:01:49.902Z,1.00
2022-08-12T18:04:22.958Z,1.47
2022-08-12T18:07:06.285Z,2.83
2022-08-12T18:09:37.834Z,1.40
2022-08-12T18:12:26.824Z,1.30
2022-08-12T18:14:58.386Z,1.30
2022-08-12T18:17:29.578Z,1.90
2022-08-12T18:20:05.050Z,1.60
2022-08-12T18:22:39.523Z,3.23
2022-08-12T18:26:09.981Z,1.40
2022-08-12T18:28:15.776Z,1.50
2022-08-12T18:30:52.975Z,1.30
2022-08-12T18:33:25.831Z,1.50
2022-08-12T18:35:58.340Z,1.50
2022-08-12T18:38:28.086Z,1.60
2022-08-12T18:41:20.999Z,2.20
2022-08-12T18:43:59.711Z,2.27
2022-08-12T18:46:47.029Z,1.50
2022-08-12T18:49:21.671Z,1.97
2022-08-12T18:52:02.560Z,2.17
2022-08-12T18:54:37.443Z,2.10
2022-08-12T18:57:19.502Z,1.80
2022-08-12T19:00:06.450Z,1.80
2022-08-12T19:02:40.389Z,1.47
2022-08-12T19:05:14.287Z,1.40
2022-08-12T19:07:50.017Z,1.47
2022-08-12T19:10:31.497Z,1.50
2022-08-12T19:13:23.416Z,4.90
2022-08-12T19:15:57.632Z,1.47
2022-08-12T19:18:29.548Z,1.80
2022-08-12T19:21:00.405Z,4.00
2022-08-12T19:23:37.551Z,1.40
2022-08-12T19:26:12.197Z,2.17
2022-08-12T19:28:42.764Z,1.93
2022-08-12T19:31:44.586Z,3.03
2022-08-12T19:35:00.331Z,4.87
2022-08-12T19:37:26.747Z,1.40
2022-08-12T19:40:07.762Z,1.77
2022-08-12T19:42:44.313Z,1.73
2022-08-12T19:45:15.797Z,2.23
2022-08-12T19:47:46.425Z,1.60
2022-08-12T19:50:20.275Z,2.10
2022-08-12T19:52:50.987Z,1.57
2022-08-12T19:55:24.109Z,1.83
2022-08-12T19:58:02.922Z,5.10
2022-08-12T20:00:34.594Z,2.13
2022-08-12T20:03:06.183Z,1.63
2022-08-12T20:06:05.170Z,2.80
2022-08-12T20:08:34.323Z,3.33
2022-08-12T20:12:12.455Z,2.37
2022-08-12T20:14:01.100Z,2.27
2022-08-12T20:16:52.428Z,2.27
2022-08-12T20:19:24.614Z,2.73
2022-08-12T20:22:14.927Z,2.40
2022-08-12T20:24:54.949Z,3.47
2022-08-12T20:28:02.974Z,2.50
2022-08-12T20:30:53.147Z,2.60
2022-08-12T20:33:17.743Z,2.37
2022-08-12T20:36:13.948Z,4.13
2022-08-12T20:38:40.698Z,5.03
2022-08-12T20:41:19.236Z,4.70
2022-08-12T20:43:52.188Z,3.23
2022-08-12T20:46:22.539Z,4.03
2022-08-12T20:48:55.205Z,3.00
2022-08-12T20:51:40.585Z,3.17
2022-08-12T20:54:19.573Z,2.30
2022-08-12T20:56:49.362Z,2.50
2022-08-12T20:59:21.473Z,2.50
2022-08-12T21:01:54.029Z,2.17
2022-08-12T21:04:43.950Z,2.70
2022-08-12T21:07:13.883Z,3.30
2022-08-12T21:09:47.065Z,2.57
2022-08-12T21:12:28.362Z,2.73
2022-08-12T21:15:23.304Z,3.20
2022-08-12T21:18:11.149Z,5.73
2022-08-12T21:20:54.552Z,2.57
2022-08-12T21:23:25.344Z,4.13
2022-08-12T21:25:56.715Z,3.50
2022-08-12T21:28:31.042Z,2.40
2022-08-12T21:31:30.158Z,2.47
2022-08-12T21:34:08.251Z,2.30
2022-08-12T21:36:40.364Z,2.57
2022-08-12T21:39:20.736Z,2.50
2022-08-12T21:41:52.705Z,5.43
2022-08-12T21:45:44.012Z,3.60
2022-08-12T21:47:20.334Z,10.00
2022-08-12T21:50:03.225Z,2.70
2022-08-12T21:52:41.970Z,2.40
2022-08-12T21:55:17.831Z,2.57
2022-08-12T21:57:54.752Z,3.40
2022-08-12T22:00:34.404Z,2.80
2022-08-12T22:04:03.056Z,2.80
2022-08-12T22:06:31.753Z,2.60
2022-08-12T22:09:16.007Z,5.20
2022-08-12T22:11:57.006Z,2.83
2022-08-12T22:14:29.570Z,2.90
2022-08-12T22:17:01.360Z,2.90
2022-08-12T22:19:34.959Z,2.70
2022-08-12T22:22:05.601Z,2.70
2022-08-12T22:24:35.456Z,2.73
2022-08-12T22:27:22.935Z,2.80
2022-08-12T22:30:16.954Z,4.13
2022-08-12T22:32:50.666Z,3.27
2022-08-12T22:35:55.317Z,2.70
2022-08-12T22:38:24.066Z,2.90
2022-08-12T22:40:55.491Z,3.00
2022-08-12T22:43:59.878Z,2.77
2022-08-12T22:46:52.733Z,4.03
2022-08-12T22:49:37.351Z,2.83
2022-08-12T22:52:18.721Z,2.60
2022-08-12T22:55:02.990Z,4.90
2022-08-12T22:57:53.922Z,3.80
2022-08-12T23:00:24.271Z,2.93
2022-08-12T23:03:03.077Z,2.40
2022-08-12T23:06:05.265Z,2.73
2022-08-12T23:08:31.694Z,4.47
2022-08-12T23:11:04.573Z,2.83
2022-08-12T23:13:54.927Z,3.43
2022-08-12T23:16:31.586Z,3.60
2022-08-12T23:19:10.828Z,3.10
2022-08-12T23:22:04.909Z,2.63
2022-08-12T23:24:55.984Z,3.50
2022-08-12T23:27:51.614Z,3.47
2022-08-12T23:30:31.227Z,4.60
2022-08-12T23:33:01.934Z,3.23
2022-08-12T23:35:53.687Z,6.03
2022-08-12T23:38:30.860Z,5.30
2022-08-12T23:41:05.998Z,4.10
2022-08-12T23:43:39.524Z,3.50
2022-08-12T23:46:12.318Z,3.27
2022-08-12T23:48:50.468Z,3.20
2022-08-12T23:51:24.510Z,3.40
2022-08-12T23:53:56.198Z,3.70
2022-08-12T23:56:27.119Z,3.37
2022-08-12T23:59:00.084Z,5.07
